createdAt,value
2018-10-03T00:00:33.335Z,9.60
2018-10-03T00:03:03.128Z,9.60
2018-10-03T00:05:32.890Z,9.60
2018-10-03T00:08:02.832Z,9.60
2018-10-03T00:10:32.539Z,9.60
2018-10-03T00:13:02.223Z,9.50
2018-10-03T00:15:31.992Z,9.50
2018-10-03T00:18:01.679Z,9.50
2018-10-03T00:20:31.386Z,9.50
2018-10-03T00:23:01.079Z,9.50
2018-10-03T00:25:30.774Z,9.50
2018-10-03T00:28:00.486Z,9.50
2018-10-03T00:30:30.190Z,9.50
2018-10-03T00:32:59.874Z,9.50
2018-10-03T00:35:29.590Z,9.50
2018-10-03T00:37:59.321Z,9.50
2018-10-03T00:40:29.070Z,9.50
2018-10-03T00:42:58.768Z,9.50
2018-10-03T00:45:28.438Z,9.50
2018-10-03T00:47:58.130Z,9.50
2018-10-03T00:50:27.827Z,9.50
2018-10-03T00:52:57.607Z,9.50
2018-10-03T00:55:27.268Z,9.50
2018-10-03T00:57:57.025Z,9.50
2018-10-03T01:00:27.062Z,9.50
2018-10-03T01:02:56.770Z,9.60
2018-10-03T01:05:27.792Z,9.60
2018-10-03T01:07:57.964Z,9.60
2018-10-03T01:10:28.813Z,9.60
2018-10-03T01:12:58.781Z,9.60
2018-10-03T01:15:28.638Z,9.60
2018-10-03T01:17:59.092Z,9.60
2018-10-03T01:20:28.758Z,9.60
2018-10-03T01:22:58.472Z,9.50
2018-10-03T01:25:28.330Z,9.50
2018-10-03T01:27:58.050Z,9.50
2018-10-03T01:30:27.738Z,9.50
2018-10-03T01:32:57.450Z,9.50
2018-10-03T01:35:27.194Z,9.50
2018-10-03T01:37:56.889Z,9.50
2018-10-03T01:40:26.566Z,9.60
2018-10-03T01:42:56.268Z,9.50
2018-10-03T01:45:25.938Z,9.50
2018-10-03T01:47:55.634Z,9.50
2018-10-03T01:50:25.297Z,9.50
2018-10-03T01:52:55.035Z,9.50
2018-10-03T01:55:24.714Z,9.50
2018-10-03T01:57:54.474Z,9.50
2018-10-03T02:00:24.162Z,9.50
2018-10-03T02:02:53.839Z,9.50
2018-10-03T02:05:23.677Z,9.50
2018-10-03T02:07:53.570Z,9.50
2018-10-03T02:10:23.239Z,9.50
2018-10-03T02:12:52.928Z,9.40
2018-10-03T02:15:22.598Z,9.50
2018-10-03T02:17:52.403Z,9.50
2018-10-03T02:20:22.132Z,9.50
2018-10-03T02:22:51.864Z,9.50
2018-10-03T02:25:21.548Z,9.50
2018-10-03T02:27:51.238Z,9.60
2018-10-03T02:30:20.941Z,9.50
2018-10-03T02:32:50.682Z,9.50
2018-10-03T02:35:20.434Z,9.50
2018-10-03T02:37:50.085Z,9.50
2018-10-03T02:40:19.755Z,9.50
2018-10-03T02:42:50.019Z,9.50
2018-10-03T02:45:20.697Z,9.50
2018-10-03T02:47:51.702Z,9.50
2018-10-03T02:50:21.423Z,9.50
2018-10-03T02:52:52.018Z,9.50
2018-10-03T02:55:21.730Z,9.50
2018-10-03T02:57:51.415Z,9.50
2018-10-03T03:00:21.119Z,9.50
2018-10-03T03:02:50.819Z,9.50
2018-10-03T03:05:20.481Z,9.50
2018-10-03T03:07:50.140Z,9.50
2018-10-03T03:10:19.850Z,9.50
2018-10-03T03:12:49.744Z,9.50
2018-10-03T03:15:19.447Z,9.50
2018-10-03T03:17:49.162Z,9.50
2018-10-03T03:20:18.851Z,9.50
2018-10-03T03:22:48.511Z,9.50
2018-10-03T03:25:18.206Z,9.50
2018-10-03T03:27:47.983Z,9.50
2018-10-03T03:30:17.671Z,9.50
2018-10-03T03:32:47.342Z,9.60
2018-10-03T03:35:17.169Z,9.60
2018-10-03T03:37:46.948Z,9.60
2018-10-03T03:40:16.662Z,9.60
2018-10-03T03:42:46.370Z,9.60
2018-10-03T03:45:16.096Z,9.60
2018-10-03T03:47:45.771Z,9.60
2018-10-03T03:50:15.559Z,9.60
2018-10-03T03:52:45.345Z,9.60
2018-10-03T03:55:15.044Z,9.60
2018-10-03T03:57:44.687Z,9.60
2018-10-03T04:00:14.454Z,9.60
2018-10-03T04:02:44.161Z,9.60
2018-10-03T04:05:14.599Z,9.60
2018-10-03T04:07:44.257Z,9.70
2018-10-03T04:10:13.931Z,9.70
2018-10-03T04:12:43.635Z,9.70
2018-10-03T04:15:13.349Z,9.70
2018-10-03T04:17:43.037Z,9.80
2018-10-03T04:20:12.754Z,9.80
2018-10-03T04:22:42.434Z,9.80
2018-10-03T04:25:12.121Z,9.80
2018-10-03T04:27:41.856Z,9.70
2018-10-03T04:30:11.581Z,9.70
2018-10-03T04:32:41.247Z,9.70
2018-10-03T04:35:10.981Z,9.70
2018-10-03T04:37:40.661Z,9.70
2018-10-03T04:40:10.387Z,9.60
2018-10-03T04:42:40.099Z,9.60
2018-10-03T04:45:09.757Z,9.60
2018-10-03T04:47:39.439Z,9.60
2018-10-03T04:50:09.125Z,9.60
2018-10-03T04:52:38.967Z,9.50
2018-10-03T04:55:08.719Z,9.60
2018-10-03T04:57:38.443Z,9.60
2018-10-03T05:00:08.281Z,9.50
2018-10-03T05:02:37.985Z,9.50
2018-10-03T05:05:07.735Z,9.50
2018-10-03T05:07:37.402Z,9.50
2018-10-03T05:10:07.190Z,9.50
2018-10-03T05:12:37.066Z,9.50
2018-10-03T05:15:06.985Z,9.50
2018-10-03T05:17:36.683Z,9.50
2018-10-03T05:20:06.499Z,9.60
2018-10-03T05:22:36.170Z,9.50
2018-10-03T05:25:06.099Z,9.60
2018-10-03T05:27:35.796Z,9.60
2018-10-03T05:30:05.815Z,9.60
2018-10-03T05:32:35.517Z,9.60
2018-10-03T05:35:05.518Z,9.60
2018-10-03T05:37:35.474Z,9.60
2018-10-03T05:40:05.234Z,9.70
2018-10-03T05:42:34.908Z,9.70
2018-10-03T05:45:04.622Z,9.80
2018-10-03T05:47:34.401Z,9.80
2018-10-03T05:50:04.178Z,9.80
2018-10-03T05:52:33.837Z,9.80
2018-10-03T05:55:03.606Z,9.80
2018-10-03T05:57:33.286Z,9.90
2018-10-03T06:00:03.122Z,9.90
2018-10-03T06:02:32.832Z,9.90
2018-10-03T06:05:02.534Z,9.90
2018-10-03T06:07:32.280Z,10.00
2018-10-03T06:10:02.050Z,10.00
2018-10-03T06:12:31.734Z,10.10
2018-10-03T06:15:01.442Z,10.10
2018-10-03T06:17:31.150Z,10.20
2018-10-03T06:20:01.128Z,10.20
2018-10-03T06:22:30.875Z,10.20
2018-10-03T06:25:00.644Z,10.30
2018-10-03T06:27:30.518Z,10.30
2018-10-03T06:30:00.434Z,10.40
2018-10-03T06:32:30.138Z,10.40
2018-10-03T06:34:59.846Z,10.50
2018-10-03T06:37:29.546Z,10.50
2018-10-03T06:39:59.430Z,10.50
2018-10-03T06:42:29.109Z,10.50
2018-10-03T06:44:58.968Z,10.50
2018-10-03T06:47:28.666Z,10.60
2018-10-03T06:49:58.380Z,10.50
2018-10-03T06:52:28.146Z,10.60
2018-10-03T06:54:58.008Z,10.60
2018-10-03T06:57:27.693Z,10.60
2018-10-03T06:59:57.414Z,10.70
2018-10-03T07:02:27.128Z,10.70
2018-10-03T07:04:56.846Z,10.70
2018-10-03T07:07:26.729Z,10.70
2018-10-03T07:09:56.489Z,10.80
2018-10-03T07:12:28.796Z,10.80
2018-10-03T07:14:58.646Z,10.90
2018-10-03T07:17:28.334Z,10.90
2018-10-03T07:19:58.044Z,11.00
2018-10-03T07:22:27.888Z,11.00
2018-10-03T07:24:57.614Z,11.00
2018-10-03T07:27:27.356Z,11.10
2018-10-03T07:29:57.030Z,11.10
2018-10-03T07:32:26.809Z,11.20
2018-10-03T07:34:56.478Z,11.20
2018-10-03T07:37:26.227Z,11.20
2018-10-03T07:39:56.072Z,11.20
2018-10-03T07:42:25.890Z,11.30
2018-10-03T07:44:55.580Z,11.30
2018-10-03T07:47:25.328Z,11.20
2018-10-03T07:49:55.045Z,11.20
2018-10-03T07:52:26.059Z,11.20
2018-10-03T07:54:55.854Z,11.20
2018-10-03T07:57:25.918Z,11.20
2018-10-03T07:59:55.717Z,11.20
2018-10-03T08:02:25.491Z,11.20
2018-10-03T08:04:55.220Z,11.30
2018-10-03T08:07:24.959Z,11.30
2018-10-03T08:09:54.693Z,11.40
2018-10-03T08:12:24.382Z,11.40
2018-10-03T08:14:54.318Z,11.60
2018-10-03T08:17:24.297Z,11.60
2018-10-03T08:19:53.983Z,11.70
2018-10-03T08:22:23.719Z,11.80
2018-10-03T08:24:53.647Z,11.80
2018-10-03T08:27:23.431Z,11.90
2018-10-03T08:29:53.697Z,12.00
2018-10-03T08:32:23.474Z,12.00
2018-10-03T08:34:53.183Z,12.20
2018-10-03T08:37:22.907Z,12.20
2018-10-03T08:39:52.704Z,12.30
2018-10-03T08:42:22.479Z,12.40
2018-10-03T08:44:52.323Z,12.40
2018-10-03T08:47:22.280Z,12.50
2018-10-03T08:49:51.977Z,12.60
2018-10-03T08:52:21.780Z,12.70
2018-10-03T08:54:51.584Z,12.80
2018-10-03T08:57:21.441Z,12.80
2018-10-03T08:59:51.218Z,12.80
2018-10-03T09:02:21.271Z,12.90
2018-10-03T09:04:51.054Z,12.90
2018-10-03T09:07:20.779Z,12.90
2018-10-03T09:09:50.611Z,13.00
2018-10-03T09:12:20.485Z,13.20
2018-10-03T09:14:50.339Z,13.30
2018-10-03T09:17:20.189Z,13.30
2018-10-03T09:19:49.930Z,13.30
2018-10-03T09:22:19.760Z,13.30
2018-10-03T09:24:49.479Z,13.40
2018-10-03T09:27:19.299Z,13.40
2018-10-03T09:29:49.058Z,13.30
2018-10-03T09:32:18.763Z,13.20
2018-10-03T09:34:48.553Z,13.10
2018-10-03T09:37:18.351Z,12.90
2018-10-03T09:39:48.138Z,12.80
2018-10-03T09:42:18.013Z,12.70
2018-10-03T09:44:47.761Z,12.70
2018-10-03T09:47:17.615Z,12.60
2018-10-03T09:49:47.339Z,12.50
2018-10-03T09:52:17.051Z,12.40
2018-10-03T09:54:46.825Z,12.40
2018-10-03T09:57:16.532Z,12.50
2018-10-03T09:59:46.261Z,12.50
2018-10-03T10:02:15.989Z,12.60
2018-10-03T10:04:45.692Z,12.60
2018-10-03T10:07:15.408Z,12.60
2018-10-03T10:09:45.357Z,12.50
2018-10-03T10:12:15.039Z,12.50
2018-10-03T10:14:44.849Z,12.50
2018-10-03T10:17:14.574Z,12.60
2018-10-03T10:19:44.517Z,12.70
2018-10-03T10:22:14.280Z,12.80
2018-10-03T10:24:44.064Z,12.90
2018-10-03T10:27:13.803Z,13.00
2018-10-03T10:29:43.622Z,13.10
2018-10-03T10:32:13.479Z,13.10
2018-10-03T10:34:43.158Z,13.20
2018-10-03T10:37:12.851Z,13.10
2018-10-03T10:39:42.635Z,13.00
2018-10-03T10:42:12.368Z,13.10
2018-10-03T10:44:42.096Z,13.10
2018-10-03T10:47:11.900Z,13.00
2018-10-03T10:49:41.627Z,13.00
2018-10-03T10:52:11.531Z,13.00
2018-10-03T10:54:42.091Z,12.90
2018-10-03T10:57:12.479Z,12.90
2018-10-03T10:59:42.749Z,12.90
2018-10-03T11:02:13.455Z,12.90
2018-10-03T11:04:43.842Z,13.00
2018-10-03T11:07:14.448Z,13.10
2018-10-03T11:09:44.422Z,13.20
2018-10-03T11:12:14.488Z,13.10
2018-10-03T11:14:44.247Z,13.10
2018-10-03T11:17:13.993Z,13.00
2018-10-03T11:19:43.873Z,12.90
2018-10-03T11:22:13.764Z,12.90
2018-10-03T11:24:43.693Z,12.80
2018-10-03T11:27:13.321Z,12.80
2018-10-03T11:29:43.092Z,12.80
2018-10-03T11:32:12.952Z,12.90
2018-10-03T11:34:42.631Z,12.90
2018-10-03T11:37:12.504Z,12.90
2018-10-03T11:39:42.283Z,12.90
2018-10-03T11:42:12.070Z,12.90
2018-10-03T11:44:41.876Z,12.90
2018-10-03T11:47:11.608Z,12.90
2018-10-03T11:49:41.503Z,12.90
2018-10-03T11:52:11.247Z,12.90
2018-10-03T11:54:40.982Z,12.90
2018-10-03T11:57:11.002Z,12.90
2018-10-03T11:59:40.780Z,12.90
2018-10-03T12:02:10.810Z,12.90
2018-10-03T12:04:40.527Z,12.90
2018-10-03T12:07:10.434Z,12.80
2018-10-03T12:09:40.172Z,12.80
2018-10-03T12:12:10.003Z,12.80
2018-10-03T12:14:39.718Z,12.90
2018-10-03T12:17:09.456Z,12.90
2018-10-03T12:19:39.326Z,12.90
2018-10-03T12:22:09.026Z,12.90
2018-10-03T12:24:38.912Z,13.00
2018-10-03T12:27:08.787Z,13.00
2018-10-03T12:29:38.577Z,13.00
2018-10-03T12:32:08.326Z,13.00
2018-10-03T12:34:38.203Z,13.10
2018-10-03T12:37:08.158Z,13.20
2018-10-03T12:39:37.914Z,13.20
2018-10-03T12:42:07.873Z,13.30
2018-10-03T12:44:37.656Z,13.30
2018-10-03T12:47:07.417Z,13.30
2018-10-03T12:49:37.201Z,13.30
2018-10-03T12:52:07.469Z,13.20
2018-10-03T12:54:37.221Z,13.20
2018-10-03T12:57:06.933Z,13.20
2018-10-03T12:59:36.760Z,13.30
2018-10-03T13:02:06.941Z,13.40
2018-10-03T13:04:37.140Z,13.40
2018-10-03T13:07:06.927Z,13.40
2018-10-03T13:09:36.663Z,13.30
2018-10-03T13:12:06.433Z,13.40
2018-10-03T13:14:36.217Z,13.70
2018-10-03T13:17:06.035Z,14.50
2018-10-03T13:19:35.732Z,15.40
2018-10-03T13:22:05.482Z,15.60
2018-10-03T13:24:35.436Z,15.70
2018-10-03T13:27:05.066Z,15.50
2018-10-03T13:29:35.015Z,15.40
2018-10-03T13:32:04.739Z,15.10
2018-10-03T13:37:33.246Z,15.00
2018-10-03T13:40:03.060Z,15.00
2018-10-03T13:42:32.963Z,15.00
2018-10-03T13:45:02.724Z,14.90
2018-10-03T13:47:32.685Z,15.00
2018-10-03T13:50:02.451Z,15.20
2018-10-03T13:52:32.178Z,15.30
2018-10-03T13:55:01.930Z,15.30
2018-10-03T13:57:31.693Z,15.20
2018-10-03T14:00:01.510Z,15.10
2018-10-03T14:02:31.270Z,15.00
2018-10-03T14:05:01.131Z,14.80
2018-10-03T14:07:30.864Z,14.70
2018-10-03T14:10:00.599Z,15.00
2018-10-03T14:12:30.401Z,15.00
2018-10-03T14:15:00.251Z,14.70
2018-10-03T14:17:30.160Z,14.50
2018-10-03T14:19:59.999Z,14.20
2018-10-03T14:22:29.760Z,14.00
2018-10-03T14:24:59.527Z,13.70
2018-10-03T14:27:29.240Z,13.60
2018-10-03T14:29:58.975Z,13.50
2018-10-03T14:32:28.680Z,13.40
2018-10-03T14:34:58.360Z,13.30
2018-10-03T14:37:28.211Z,13.30
2018-10-03T14:39:57.945Z,13.30
2018-10-03T14:42:27.710Z,13.20
2018-10-03T14:44:57.449Z,13.20
2018-10-03T14:47:27.247Z,13.20
2018-10-03T14:49:57.007Z,13.30
2018-10-03T14:52:26.813Z,13.30
2018-10-03T14:54:56.558Z,13.30
2018-10-03T14:57:27.265Z,13.40
2018-10-03T14:59:57.129Z,13.80
2018-10-03T15:02:26.833Z,14.50
2018-10-03T15:04:56.595Z,14.90
2018-10-03T15:07:26.342Z,15.00
2018-10-03T15:09:56.122Z,15.00
2018-10-03T15:12:25.879Z,15.00
2018-10-03T15:14:55.811Z,15.10
2018-10-03T15:17:26.041Z,15.40
2018-10-03T15:19:55.937Z,15.50
2018-10-03T15:22:25.705Z,15.60
2018-10-03T15:24:55.473Z,15.70
2018-10-03T15:27:25.227Z,15.60
2018-10-03T15:29:55.077Z,15.50
2018-10-03T15:32:24.773Z,15.30
2018-10-03T15:34:54.632Z,15.10
2018-10-03T15:37:24.428Z,14.90
2018-10-03T15:39:54.564Z,14.70
2018-10-03T15:42:24.249Z,14.60
2018-10-03T15:44:54.083Z,14.60
2018-10-03T15:47:23.851Z,14.60
2018-10-03T15:49:53.966Z,14.50
2018-10-03T15:52:23.785Z,14.40
2018-10-03T15:54:53.792Z,14.40
2018-10-03T15:57:23.529Z,14.20
2018-10-03T15:59:53.763Z,14.10
2018-10-03T16:02:23.708Z,13.90
2018-10-03T16:04:53.451Z,13.80
2018-10-03T16:07:23.160Z,13.70
2018-10-03T16:09:52.935Z,13.60
2018-10-03T16:12:22.650Z,13.50
2018-10-03T16:14:52.541Z,13.40
2018-10-03T16:17:22.275Z,13.40
2018-10-03T16:19:52.047Z,13.30
2018-10-03T16:22:21.780Z,13.30
2018-10-03T16:24:51.664Z,13.30
2018-10-03T16:27:21.390Z,13.20
2018-10-03T16:29:51.134Z,13.20
2018-10-03T16:32:20.922Z,13.20
2018-10-03T16:34:50.747Z,13.10
2018-10-03T16:37:20.481Z,13.10
2018-10-03T16:39:50.305Z,13.10
2018-10-03T16:42:20.045Z,13.10
2018-10-03T16:44:49.772Z,13.00
2018-10-03T16:47:19.571Z,13.00
2018-10-03T16:49:49.410Z,13.00
2018-10-03T16:52:19.192Z,13.00
2018-10-03T16:54:49.029Z,13.00
2018-10-03T16:57:18.868Z,13.00
2018-10-03T16:59:48.766Z,12.90
2018-10-03T17:02:18.505Z,12.90
2018-10-03T17:04:48.264Z,13.00
2018-10-03T17:07:18.101Z,12.90
2018-10-03T17:09:48.140Z,12.90
2018-10-03T17:12:17.930Z,12.90
2018-10-03T17:14:47.689Z,12.90
2018-10-03T17:17:17.574Z,12.80
2018-10-03T17:19:47.645Z,12.80
2018-10-03T17:22:17.503Z,12.70
2018-10-03T17:24:47.452Z,12.70
2018-10-03T17:27:17.195Z,12.60
2018-10-03T17:29:47.005Z,12.60
2018-10-03T17:32:16.848Z,12.50
2018-10-03T17:34:46.744Z,12.50
2018-10-03T17:37:16.704Z,12.40
2018-10-03T17:39:46.456Z,12.30
2018-10-03T17:42:16.224Z,12.30
2018-10-03T17:44:46.067Z,12.20
2018-10-03T17:47:16.056Z,12.10
2018-10-03T17:49:45.867Z,12.00
2018-10-03T17:52:15.688Z,11.90
2018-10-03T17:54:45.572Z,11.90
2018-10-03T17:57:15.624Z,11.80
2018-10-03T17:59:45.568Z,11.80
2018-10-03T18:02:15.450Z,11.70
2018-10-03T18:04:45.255Z,11.60
2018-10-03T18:07:15.072Z,11.60
2018-10-03T18:09:44.815Z,11.50
2018-10-03T18:12:14.640Z,11.60
2018-10-03T18:14:44.404Z,11.50
2018-10-03T18:17:14.305Z,11.50
2018-10-03T18:19:44.159Z,11.50
2018-10-03T18:22:14.232Z,11.50
2018-10-03T18:24:44.117Z,11.40
2018-10-03T18:27:13.955Z,11.40
2018-10-03T18:29:43.828Z,11.40
2018-10-03T18:32:13.745Z,11.40
2018-10-03T18:34:43.682Z,11.30
2018-10-03T18:37:13.716Z,11.30
2018-10-03T18:39:43.539Z,11.30
2018-10-03T18:42:13.477Z,11.20
2018-10-03T18:44:43.285Z,11.20
2018-10-03T18:47:13.194Z,11.10
2018-10-03T18:49:43.000Z,11.10
2018-10-03T18:52:12.953Z,11.10
2018-10-03T18:54:42.693Z,11.10
2018-10-03T18:57:12.644Z,11.00
2018-10-03T18:59:42.756Z,11.00
2018-10-03T19:02:12.608Z,10.90
2018-10-03T19:04:42.564Z,10.90
2018-10-03T19:07:12.475Z,10.90
2018-10-03T19:09:42.298Z,10.80
2018-10-03T19:12:12.348Z,10.80
2018-10-03T19:14:42.116Z,10.80
2018-10-03T19:17:12.031Z,10.70
2018-10-03T19:19:41.795Z,10.70
2018-10-03T19:22:11.981Z,10.70
2018-10-03T19:24:41.811Z,10.70
2018-10-03T19:27:11.913Z,10.70
2018-10-03T19:29:41.754Z,10.60
2018-10-03T19:32:11.552Z,10.60
2018-10-03T19:34:41.372Z,10.60
2018-10-03T19:37:11.283Z,10.50
2018-10-03T19:39:41.123Z,10.50
2018-10-03T19:42:11.221Z,10.50
2018-10-03T19:44:41.022Z,10.50
2018-10-03T19:47:10.902Z,10.40
2018-10-03T19:49:40.877Z,10.40
2018-10-03T19:52:10.747Z,10.40
2018-10-03T19:54:40.613Z,10.30
2018-10-03T19:57:10.751Z,10.30
2018-10-03T19:59:44.985Z,10.30
2018-10-03T20:02:14.737Z,10.30
2018-10-03T20:04:44.565Z,10.30
2018-10-03T20:07:14.355Z,10.30
2018-10-03T20:09:44.318Z,10.20
2018-10-03T20:12:14.099Z,10.20
2018-10-03T20:14:43.888Z,10.20
2018-10-03T20:17:14.010Z,10.20
2018-10-03T20:19:44.150Z,10.20
2018-10-03T20:22:13.890Z,10.20
2018-10-03T20:24:43.729Z,10.30
2018-10-03T20:27:13.507Z,10.30
2018-10-03T20:29:43.408Z,10.30
2018-10-03T20:32:13.277Z,10.40
2018-10-03T20:34:43.141Z,10.30
2018-10-03T20:37:12.893Z,10.30
2018-10-03T20:39:42.690Z,10.30
2018-10-03T20:42:12.476Z,10.30
2018-10-03T20:44:42.393Z,10.30
2018-10-03T20:47:12.212Z,10.30
2018-10-03T20:49:42.017Z,10.30
2018-10-03T20:52:11.793Z,10.30
2018-10-03T20:54:41.704Z,10.30
2018-10-03T20:57:11.524Z,10.30
2018-10-03T20:59:41.337Z,10.30
2018-10-03T21:02:11.077Z,10.40
2018-10-03T21:04:40.983Z,10.40
2018-10-03T21:07:10.740Z,10.40
2018-10-03T21:09:40.581Z,10.40
2018-10-03T21:12:10.481Z,10.40
2018-10-03T21:14:40.263Z,10.40
2018-10-03T21:17:10.032Z,10.40
2018-10-03T21:19:39.856Z,10.50
2018-10-03T21:22:09.806Z,10.50
2018-10-03T21:24:39.551Z,10.50
2018-10-03T21:27:09.299Z,10.50
2018-10-03T21:29:39.373Z,10.60
2018-10-03T21:32:09.137Z,10.60
2018-10-03T21:34:38.980Z,10.60
2018-10-03T21:37:08.733Z,10.60
2018-10-03T21:39:38.471Z,10.70
2018-10-03T21:42:08.412Z,10.70
2018-10-03T21:44:38.168Z,10.70
2018-10-03T21:47:07.961Z,10.70
2018-10-03T21:49:37.750Z,10.70
2018-10-03T21:52:07.587Z,10.70
2018-10-03T21:54:37.383Z,10.60
2018-10-03T21:57:07.427Z,10.60
2018-10-03T21:59:37.189Z,10.60
2018-10-03T22:02:06.951Z,10.50
2018-10-03T22:04:36.699Z,10.50
2018-10-03T22:07:06.656Z,10.40
2018-10-03T22:09:36.378Z,10.40
2018-10-03T22:12:06.228Z,10.40
2018-10-03T22:14:35.972Z,10.40
2018-10-03T22:17:10.028Z,10.50
2018-10-03T22:19:39.843Z,10.50
2018-10-03T22:22:09.559Z,10.50
2018-10-03T22:24:39.323Z,10.50
2018-10-03T22:27:09.056Z,10.50
2018-10-03T22:29:39.146Z,10.50
2018-10-03T22:32:09.337Z,10.60
2018-10-03T22:34:39.460Z,10.50
2018-10-03T22:37:10.132Z,10.50
2018-10-03T22:39:40.748Z,10.50
2018-10-03T22:42:10.562Z,10.60
2018-10-03T22:44:40.425Z,10.60
2018-10-03T22:47:10.098Z,10.60
2018-10-03T22:49:39.796Z,10.60
2018-10-03T22:52:09.480Z,10.70
2018-10-03T22:54:39.178Z,10.70
2018-10-03T22:57:08.869Z,10.70
2018-10-03T22:59:38.590Z,10.70
2018-10-03T23:02:08.625Z,10.70
2018-10-03T23:04:38.360Z,10.70
2018-10-03T23:07:08.330Z,10.70
2018-10-03T23:09:38.196Z,10.70
2018-10-03T23:12:08.118Z,10.70
2018-10-03T23:14:38.066Z,10.70
2018-10-03T23:17:08.112Z,10.80
2018-10-03T23:19:37.965Z,10.80
2018-10-03T23:22:07.728Z,10.80
2018-10-03T23:24:37.638Z,10.80
2018-10-03T23:27:07.699Z,10.80
2018-10-03T23:29:37.446Z,10.80
2018-10-03T23:32:07.165Z,10.80
2018-10-03T23:34:37.173Z,10.70
2018-10-03T23:37:07.125Z,10.60
2018-10-03T23:39:37.135Z,10.60
2018-10-03T23:42:06.962Z,10.60
2018-10-03T23:44:36.972Z,10.60
2018-10-03T23:47:06.856Z,10.60
2018-10-03T23:49:36.615Z,10.70
2018-10-03T23:52:06.395Z,10.70
2018-10-03T23:54:36.370Z,10.80
2018-10-03T23:57:06.284Z,10.80
2018-10-03T23:59:36.129Z,10.80
